Terminal Aerodrome Forecast
Issued by NWS

Home | Current Version | Previous Version | Text Only | Print | Product List | Glossary On
Versions: 1 2 3 4 5 6 7 8 9 10 11 12 13 14 15 16 17 18 19 20 21 22 23 24 25 26 27 28 29 30 31 32 33 34 35 36 37 38 39
367
FTUS45 KGJT 240601 AAA
TAFEGE
TAF AMD
KEGE 240601Z 2406/2506 VRB03KT P6SM VCSH SCT050 BKN060
     FM241100 VRB03KT P6SM SCT100
     FM241800 VRB03KT P6SM SCT100
     FM242100 25008KT P6SM SCT100
     FM250200 09005KT P6SM SCT150
      AMD LTD TO CLD VIS AND WIND TIL 241300=

USA.gov is the U.S. government's official web portal to all federal, state and local government web resources and services.